x

Buoy E01 - Central Maine Shelf (44032) Wave Buoy

6:04 - Mon 20th Oct 2014 All times are EDT. -4 hours from GMT.

  • Sig Wave height 3.3ft
  • Peak Period 4s
  • Wind
    18mph, 20mph gusts
  • Sea Temp 55°f
  • Aire Temp 52°f
  • Sea Pressure 1013.7mb
  • Buoy E01 - Central Maine Shelf
  • Buoy E01 - Central Maine Shelf

More Historic Weather Station data

Upgrade to MSW Pro to gain access to the past 30 days of data for over 8000 Wavebouys and Weather Stations around the globe.

Join Pro

Comparision Forecast

View Surf forecast
   
lun 10/20 6:04 3.5ft 4s 18 20 mph 1013.7mb 55f 52f
5:04 2.5ft 5s 16 20 mph 1013.3mb 55f 51f
4:04 2.5ft 3s 16 18 mph 1013.1mb 55f 50f
3:04 2.5ft 4s 16 18 mph 1013.1mb 55f 48f
2:04 2.5ft 3s 16 20 mph 1013.3mb 55f 47f
1:04 2ft 5s 13 18 mph 1013.7mb 55f 46f
12:04 3.5ft 11s 13 16 mph 1014.1mb 55f 46f
11:04 2.5ft 5s 9 16 mph 1014.4mb 55f 45f
10:04 2.5ft 5s 11 16 mph 1014.6mb 55f 44f
9:04 3.5ft 5s 13 18 mph 1014.3mb 55f 44f
8:04 3ft 4s 16 20 mph 1013.8mb 55f 44f
7:04 2.5ft 4s 18 22 mph 1012.9mb 55f 44f
6:04 2.5ft 4s 22 25 mph 1012.4mb 55f 45f
5:04 2.5ft 5s 18 22 mph 1012.1mb 55f 46f
4:04 2.5ft 4s 20 25 mph 1011.7mb 55f 46f
3:04 2.5ft 4s 22 27 mph 1011.1mb 55f 47f
2:04 3ft 4s 20 27 mph 1011.1mb 55f 46f
1:04 4.5ft 11s 20 27 mph 1010.5mb 55f 47f
12:04 4.5ft 11s 22 29 mph 1010mb 55f 47f
dom 10/19 11:04 2.5ft 3s 22 27 mph 1009.7mb 56f 47f
10:04 2.5ft 4s 20 25 mph 1009.5mb 56f 48f
9:04 2.5ft 4s 20 25 mph 1009.3mb 56f 48f
8:04 3ft 4s 20 25 mph 1008.9mb 56f 48f
7:04 3.5ft 4s 25 31 mph 1008.1mb 56f 49f
6:04 3.5ft 4s 25 31 mph 1007.8mb 56f 49f
5:04 3.5ft 4s 25 29 mph 1007.3mb 56f 50f
4:04 4ft 8s 22 27 mph 1006.5mb 56f 51f
3:04 5ft 11s 13 18 mph 1005.9mb 56f 52f
2:04 5ft 11s 9 13 mph 1005.8mb 56f 51f
1:04  -   -  13 18 mph 1004.9mb 56f 49f
12:04  -   -  13 18 mph 1006.3mb 55f 48f
11:04 2ft 3s 16 20 mph 1006.2mb 55f 47f
10:04 2.5ft 3s 18 22 mph 1006mb 56f 47f
9:04 2.5ft 4s 18 22 mph 1005.9mb 56f 48f
8:04 3ft 4s 22 29 mph 1004.6mb 56f 49f
7:04 3.5ft 4s 22 25 mph 1003.3mb 56f 50f
6:04 3.5ft 4s 20 25 mph 1002.1mb 56f 51f
5:04 7ft 11s 22 29 mph 1001mb 56f 53f
4:04  -   -  18 22 mph 1000.7mb 56f 54f
3:04  -   -  11 13 mph 999.9mb 56f 56f
2:04  -   -  13 16 mph 999.4mb 56f 57f
1:04 6ft 11s 11 13 mph 999.1mb 56f 57f
12:04  -   -  11 13 mph 998.8mb 56f 57f
sáb 10/18 11:04  -   -  7 9 mph 998.5mb 56f 57f
10:04 2.5ft 5s 9 11 mph 998.2mb 56f 58f
9:04 3ft 5s 9
mph
998.1mb 56f 58f
8:04 6ft 8s 9 11 mph 997.7mb 56f 58f
7:04  -   -  11 16 mph 997.9mb 56f 59f
6:04  -   -  11 13 mph 997.4mb 57f 59f
5:04  -   -  11 16 mph 997.4mb 57f 59f
4:04 7ft 11s 7 9 mph 998.2mb 57f 58f
3:04 8.5ft 11s 4 7 mph 998.7mb 57f 58f
2:04 9ft 11s 11 13 mph 999mb 56f 58f
1:04 10ft 11s 7 11 mph 999.6mb 56f 58f
12:04  -   -  11 16 mph 1000.6mb 56f 58f
11:04 7ft 11s 13 16 mph 1000.7mb 56f 59f
10:04 7.5ft 11s 11 13 mph 1001.2mb 56f 58f
9:04 7ft 11s 13 16 mph 1001.5mb 56f 58f
8:04 7.5ft 11s 16 18 mph 1001.4mb 56f 58f
7:04 8ft 11s 13 16 mph 1001.2mb 56f 58f
6:04 8.5ft 11s 13 16 mph 1001.5mb 56f 58f
5:04 7ft 8s 16 20 mph 1001.8mb 56f 58f
4:04 8.5ft 11s 16 20 mph 1001.8mb 56f 58f
3:04 8.5ft 11s 13 18 mph 1002.1mb 56f 58f
2:04 9ft 11s 13 16 mph 1002.9mb 56f 58f
1:04 9ft 11s 13
mph
1003.2mb 56f 58f
12:04 8ft 11s 13 16 mph 1003.4mb 56f 59f
vie 10/17 11:04 9ft 11s 16 18 mph 1003.4mb 56f 59f
10:04 9.5ft 11s 16 20 mph 1003.8mb 56f 59f
9:04 7ft 11s 16 18 mph 1003.5mb 56f 59f
8:04 6ft 11s 16 18 mph 1003mb 56f 59f
7:04 7ft 11s 16 18 mph 1002.8mb 56f 59f
6:04 6ft 11s 18 20 mph 1002.3mb 56f 59f
5:04 8ft 11s 18 20 mph 1002mb 56f 59f
4:04 8ft 11s 18 22 mph 1001.7mb 56f 60f
3:04 8ft 8s 18 20 mph 1001.4mb 56f 59f
2:04 8ft 11s 20 25 mph 1001.1mb 57f 59f
1:04 6.5ft 8s 20 22 mph 1001mb 57f 59f
12:04 6ft 8s 16 20 mph 1001.5mb 56f 58f
11:04 5ft 8s 16 18 mph 1001.6mb 56f 58f
10:04 5ft 6s 16 22 mph 1001.3mb 56f 58f
9:04 5ft 8s 11 13 mph 1000.9mb 56f 57f
8:04 5ft 8s 13 16 mph 1001.3mb 56f 58f
7:04 4.5ft 8s 4
mph
1001mb 56f 58f
6:04 4.5ft 8s 4 7 mph 1001mb 56f 57f
5:04 5ft 8s 13 16 mph 1002.9mb 56f 58f
4:04 4.5ft 8s 7 9 mph 1002.9mb 56f 58f
3:04 5ft 6s 13 16 mph 1003.7mb 56f 60f
2:04 5.5ft 6s 16 20 mph 1004.2mb 56f 60f
1:04 5ft 5s 16 18 mph 1005mb 56f 59f